Time;durP1;ratioP1;P1;durP2;ratioP2;P2;SDS_P1;SDS_P2;PMS_P1;PMS_P2;Temp;Humidity;BMP_temperature;BMP_pressure;BME280_temperature;BME280_humidity;BME280_pressure;Samples;Min_cycle;Max_cycle;Signal;HPM_P1;HPM_P2
2022/09/06 00:00:55;;;;;;;0.40;0.40;;;21.50;59.50;;;;;;6248313;22;20113;-74
2022/09/06 00:03:22;;;;;;;0.50;0.50;;;21.50;59.60;;;;;;6248710;22;20015;-74
2022/09/06 00:05:48;;;;;;;0.40;0.40;;;21.50;59.70;;;;;;6274777;22;20007;-74
2022/09/06 00:08:14;;;;;;;0.60;0.60;;;21.40;59.70;;;;;;6247951;22;20101;-75
2022/09/06 00:10:41;;;;;;;0.50;0.50;;;21.40;59.80;;;;;;6248730;22;20027;-76
2022/09/06 00:13:08;;;;;;;0.57;0.57;;;21.50;59.90;;;;;;6275588;22;20339;-75
2022/09/06 00:15:36;;;;;;;0.40;0.40;;;21.40;60.50;;;;;;6222694;22;20019;-75
2022/09/06 00:18:04;;;;;;;0.47;0.40;;;21.40;60.00;;;;;;6248010;22;20012;-75
2022/09/06 00:20:31;;;;;;;0.40;0.40;;;21.40;60.10;;;;;;6275954;22;20038;-75
2022/09/06 00:22:58;;;;;;;0.40;0.40;;;21.40;60.10;;;;;;6275706;22;20003;-75
2022/09/06 00:25:25;;;;;;;0.60;0.60;;;21.40;60.20;;;;;;6276903;22;20007;-77
2022/09/06 00:27:55;;;;;;;0.50;0.50;;;21.40;60.30;;;;;;6275448;22;20074;-75
2022/09/06 00:30:21;;;;;;;0.60;0.60;;;21.40;60.40;;;;;;6249309;22;20004;-75
2022/09/06 00:32:47;;;;;;;1.05;0.60;;;21.30;60.40;;;;;;6275159;22;20090;-75
2022/09/06 00:35:12;;;;;;;0.50;0.50;;;21.40;60.50;;;;;;6247958;22;20559;-76
2022/09/06 00:37:38;;;;;;;0.50;0.50;;;21.30;60.50;;;;;;6275456;22;20027;-75
2022/09/06 00:40:04;;;;;;;0.55;0.55;;;21.30;60.50;;;;;;6275178;22;20012;-75
2022/09/06 00:42:30;;;;;;;0.68;0.50;;;21.30;61.20;;;;;;6276000;22;20010;-75
2022/09/06 00:44:56;;;;;;;0.50;0.50;;;21.40;60.70;;;;;;6275720;22;20015;-75
2022/09/06 00:47:21;;;;;;;0.60;0.60;;;21.30;60.70;;;;;;6275988;22;20432;-75
2022/09/06 00:49:52;;;;;;;0.50;0.50;;;21.30;60.90;;;;;;6275413;22;20011;-75
2022/09/06 00:52:18;;;;;;;0.40;0.40;;;21.20;60.90;;;;;;6275897;22;20021;-75
2022/09/06 00:54:46;;;;;;;0.40;0.40;;;21.20;61.10;;;;;;6275135;22;20011;-75
2022/09/06 00:57:14;;;;;;;0.50;0.50;;;21.20;61.30;;;;;;6275777;22;20022;-75
2022/09/06 00:59:41;;;;;;;0.45;0.45;;;21.20;61.60;;;;;;6274841;22;20011;-74
2022/09/06 01:02:08;;;;;;;0.40;0.40;;;21.10;61.80;;;;;;6274978;22;20015;-74
2022/09/06 01:04:36;;;;;;;0.52;0.52;;;21.10;62.00;;;;;;6275113;22;20012;-74
2022/09/06 01:07:25;;;;;;;0.60;0.60;;;21.00;62.20;;;;;;6274910;22;20049;-74
2022/09/06 01:10:24;;;;;;;0.55;0.50;;;20.90;62.60;;;;;;6245658;22;20008;-75
2022/09/06 01:13:14;;;;;;;0.35;0.35;;;20.80;62.90;;;;;;6255550;22;20004;-75
2022/09/06 01:15:59;;;;;;;1.13;0.60;;;20.80;63.20;;;;;;6275027;22;20000;-75
2022/09/06 01:18:40;;;;;;;0.50;0.50;;;20.70;63.40;;;;;;6275425;22;20075;-75
2022/09/06 01:21:39;;;;;;;0.50;0.50;;;20.70;63.60;;;;;;6274680;22;20007;-75
2022/09/06 01:24:37;;;;;;;0.73;0.40;;;20.60;63.80;;;;;;6255841;22;20008;-75
2022/09/06 01:27:36;;;;;;;0.50;0.50;;;20.60;64.00;;;;;;6275255;22;20012;-75
2022/09/06 01:30:07;;;;;;;1.08;0.52;;;20.50;64.20;;;;;;6247484;22;20026;-75
2022/09/06 01:33:12;;;;;;;0.50;0.50;;;20.40;64.50;;;;;;6247776;22;20412;-75
2022/09/06 01:36:00;;;;;;;0.55;0.50;;;20.30;64.90;;;;;;6227144;22;20019;-75
2022/09/06 01:38:26;;;;;;;0.45;0.45;;;20.20;64.90;;;;;;6275317;22;20011;-75
2022/09/06 01:40:52;;;;;;;0.52;0.50;;;20.20;65.00;;;;;;6247720;22;20069;-76
2022/09/06 01:43:24;;;;;;;0.40;0.40;;;20.20;65.20;;;;;;6274894;22;20358;-74
2022/09/06 01:46:08;;;;;;;0.50;0.50;;;20.20;65.50;;;;;;6275013;22;20007;-75
2022/09/06 01:48:49;;;;;;;0.40;0.40;;;20.10;65.60;;;;;;6248293;22;20019;-75
2022/09/06 01:51:37;;;;;;;0.50;0.50;;;20.10;65.70;;;;;;6274686;22;20008;-76
2022/09/06 01:54:27;;;;;;;0.50;0.50;;;20.00;65.80;;;;;;6274742;22;20907;-76
2022/09/06 01:57:13;;;;;;;;;;;20.00;66.00;;;;;;6275331;22;20011;-77
2022/09/06 02:00:08;;;;;;;0.47;0.47;;;20.00;66.00;;;;;;6253357;22;19911;-80
2022/09/06 02:03:01;;;;;;;0.90;0.60;;;20.00;66.00;;;;;;6253209;22;20077;-79
2022/09/06 02:05:39;;;;;;;0.50;0.50;;;19.90;66.30;;;;;;6248036;22;20068;-78
2022/09/06 02:08:11;;;;;;;0.40;0.40;;;19.90;66.70;;;;;;6222078;22;20000;-78
2022/09/06 02:10:48;;;;;;;0.90;0.63;;;19.80;66.90;;;;;;6224187;22;20443;-78
2022/09/06 02:13:16;;;;;;;0.60;0.60;;;19.80;67.10;;;;;;6250363;22;20081;-79
2022/09/06 02:15:48;;;;;;;0.65;0.55;;;19.80;67.20;;;;;;6248002;22;20008;-79
2022/09/06 02:18:29;;;;;;;0.60;0.60;;;19.80;67.50;;;;;;6249034;22;20019;-79
2022/09/06 02:20:56;;;;;;;;;;;19.70;67.70;;;;;;6250301;22;20015;-80
2022/09/06 02:23:27;;;;;;;0.40;0.40;;;19.60;67.70;;;;;;6225096;22;19926;-81
2022/09/06 02:25:58;;;;;;;0.73;0.60;;;19.60;67.90;;;;;;6283340;22;20068;-78
2022/09/06 02:28:24;;;;;;;0.55;0.55;;;19.50;68.10;;;;;;6286110;22;20007;-78
2022/09/06 02:30:56;;;;;;;0.60;0.50;;;19.60;68.30;;;;;;6256322;22;20012;-78
2022/09/06 02:33:28;;;;;;;1.52;0.68;;;19.60;68.50;;;;;;6287882;22;21016;-78
2022/09/06 02:35:55;;;;;;;0.60;0.60;;;19.50;68.60;;;;;;6289611;22;20067;-78
2022/09/06 02:38:23;;;;;;;0.68;0.50;;;19.50;68.80;;;;;;6261401;22;20064;-78
2022/09/06 02:40:52;;;;;;;0.60;0.60;;;19.50;69.00;;;;;;6288878;22;20010;-78
2022/09/06 02:43:19;;;;;;;0.52;0.52;;;19.50;69.20;;;;;;6288372;22;20003;-78
2022/09/06 02:45:44;;;;;;;0.68;0.68;;;19.50;69.30;;;;;;6287090;22;20004;-78
2022/09/06 02:48:10;;;;;;;0.75;0.60;;;19.30;69.40;;;;;;6288684;22;20019;-78
2022/09/06 02:50:36;;;;;;;0.90;0.70;;;19.30;69.70;;;;;;6290071;22;20023;-78
2022/09/06 02:53:04;;;;;;;0.70;0.60;;;19.30;69.80;;;;;;6289573;22;20012;-78
2022/09/06 02:55:30;;;;;;;1.42;0.90;;;19.30;70.10;;;;;;6289990;22;20023;-79
2022/09/06 02:57:56;;;;;;;0.65;0.65;;;19.20;70.20;;;;;;6259088;22;20427;-78
2022/09/06 03:00:22;;;;;;;0.50;0.50;;;19.20;70.40;;;;;;6256731;22;20014;-78
2022/09/06 03:02:47;;;;;;;0.75;0.60;;;19.20;70.50;;;;;;6286430;22;20007;-78
2022/09/06 03:05:13;;;;;;;0.50;0.50;;;19.20;70.50;;;;;;6291215;22;20004;-78
2022/09/06 03:07:39;;;;;;;0.60;0.60;;;19.10;70.60;;;;;;6290223;22;20023;-78
2022/09/06 03:10:05;;;;;;;0.50;0.50;;;19.20;70.80;;;;;;6288997;22;20008;-78
2022/09/06 03:12:31;;;;;;;0.55;0.50;;;19.10;70.80;;;;;;6262674;22;20086;-78
2022/09/06 03:14:57;;;;;;;0.45;0.45;;;19.10;70.90;;;;;;6262635;22;20008;-78
2022/09/06 03:17:22;;;;;;;0.60;0.60;;;19.10;71.10;;;;;;6290606;22;20031;-78
2022/09/06 03:19:48;;;;;;;0.45;0.45;;;19.10;71.30;;;;;;6292518;22;20004;-78
2022/09/06 03:22:13;;;;;;;0.60;0.60;;;19.10;71.30;;;;;;6263959;22;20004;-78
2022/09/06 03:24:39;;;;;;;0.43;0.43;;;19.10;71.30;;;;;;6291792;22;20320;-77
2022/09/06 03:27:05;;;;;;;0.50;0.50;;;19.10;71.40;;;;;;6292978;22;20018;-77
2022/09/06 03:29:31;;;;;;;0.45;0.45;;;19.10;71.40;;;;;;6265495;22;20011;-77
2022/09/06 03:31:57;;;;;;;0.75;0.70;;;19.20;71.50;;;;;;6264886;22;20000;-77
2022/09/06 03:34:22;;;;;;;0.40;0.40;;;19.20;71.50;;;;;;6291920;22;20011;-77
2022/09/06 03:36:48;;;;;;;0.40;0.40;;;19.10;71.50;;;;;;6264572;22;20007;-77
2022/09/06 03:39:14;;;;;;;0.50;0.50;;;19.10;71.60;;;;;;6290527;22;20016;-77
2022/09/06 03:41:40;;;;;;;0.47;0.47;;;19.00;71.70;;;;;;6293638;22;20004;-78
2022/09/06 03:44:05;;;;;;;0.40;0.40;;;19.10;71.90;;;;;;6267977;22;20043;-77
2022/09/06 03:46:31;;;;;;;0.55;0.55;;;19.10;71.90;;;;;;6271680;22;20063;-77
2022/09/06 03:48:58;;;;;;;0.40;0.40;;;19.10;72.00;;;;;;6271336;22;20008;-77
2022/09/06 03:51:24;;;;;;;0.60;0.60;;;19.10;72.00;;;;;;6297865;22;20074;-77
2022/09/06 03:53:49;;;;;;;0.60;0.60;;;19.10;72.10;;;;;;6270869;22;20352;-77
2022/09/06 03:56:15;;;;;;;0.98;0.70;;;19.00;72.20;;;;;;6295811;22;20010;-77
2022/09/06 03:58:41;;;;;;;0.57;0.57;;;19.00;72.40;;;;;;6270369;22;20015;-77
2022/09/06 04:01:10;;;;;;;0.70;0.70;;;19.00;72.50;;;;;;6240791;22;19992;-78
2022/09/06 04:03:36;;;;;;;0.98;0.80;;;19.00;72.70;;;;;;6290562;22;20074;-78
2022/09/06 04:06:04;;;;;;;0.60;0.60;;;19.00;72.90;;;;;;6267806;22;20018;-78
2022/09/06 04:08:31;;;;;;;0.60;0.60;;;18.90;73.00;;;;;;6267915;22;19991;-78
2022/09/06 04:10:58;;;;;;;0.85;0.70;;;18.90;73.10;;;;;;6267078;22;20003;-78
2022/09/06 04:13:25;;;;;;;0.75;0.60;;;19.00;73.20;;;;;;6293842;22;20121;-78
2022/09/06 04:15:51;;;;;;;0.40;0.40;;;19.00;73.20;;;;;;6293281;22;20077;-78
2022/09/06 04:18:18;;;;;;;0.40;0.40;;;19.00;73.10;;;;;;6286945;22;20000;-77
2022/09/06 04:20:48;;;;;;;0.98;0.65;;;19.00;73.10;;;;;;6294291;22;20008;-78
2022/09/06 04:23:14;;;;;;;0.45;0.43;;;19.00;73.10;;;;;;6293391;22;20471;-78
2022/09/06 04:25:40;;;;;;;0.50;0.50;;;19.00;73.10;;;;;;6293199;22;20004;-78
2022/09/06 04:28:06;;;;;;;0.60;0.60;;;19.00;73.20;;;;;;6262079;22;20037;-78
2022/09/06 04:30:31;;;;;;;0.60;0.60;;;19.00;73.20;;;;;;6293037;22;20014;-77
2022/09/06 04:32:57;;;;;;;0.50;0.50;;;19.00;73.20;;;;;;6266128;22;20008;-78
2022/09/06 04:35:23;;;;;;;0.50;0.50;;;19.00;73.30;;;;;;6291941;22;20019;-78
2022/09/06 04:37:48;;;;;;;0.40;0.40;;;19.00;73.30;;;;;;6290836;22;20007;-78
2022/09/06 04:40:14;;;;;;;0.40;0.40;;;19.00;73.50;;;;;;6265934;22;20134;-77
2022/09/06 04:42:40;;;;;;;0.50;0.50;;;19.00;73.60;;;;;;6259393;22;20007;-78
2022/09/06 04:45:06;;;;;;;0.47;0.47;;;19.00;73.60;;;;;;6295295;22;20014;-77
2022/09/06 04:47:32;;;;;;;0.63;0.60;;;19.00;73.70;;;;;;6269726;22;20007;-77
2022/09/06 04:49:58;;;;;;;0.47;0.47;;;19.00;73.70;;;;;;6296151;22;20003;-77
2022/09/06 04:52:24;;;;;;;0.60;0.60;;;19.00;73.70;;;;;;6295539;22;20004;-77
2022/09/06 04:54:49;;;;;;;0.52;0.50;;;19.00;73.70;;;;;;6243902;22;20008;-78
2022/09/06 04:57:15;;;;;;;0.68;0.45;;;19.00;73.70;;;;;;6293067;22;20046;-78
2022/09/06 04:59:40;;;;;;;0.50;0.50;;;19.00;73.70;;;;;;6293280;22;20012;-78
2022/09/06 05:02:06;;;;;;;0.57;0.57;;;19.00;73.90;;;;;;6293402;22;20019;-78
2022/09/06 05:04:32;;;;;;;0.50;0.50;;;19.00;74.00;;;;;;6296768;22;20031;-77
2022/09/06 05:07:01;;;;;;;0.60;0.60;;;19.00;74.00;;;;;;6297103;22;20010;-77
2022/09/06 05:09:28;;;;;;;0.55;0.55;;;19.00;74.10;;;;;;6271923;22;20019;-77
2022/09/06 05:11:53;;;;;;;0.50;0.50;;;18.90;74.10;;;;;;6272881;22;20594;-77
2022/09/06 05:14:19;;;;;;;0.50;0.50;;;19.00;74.10;;;;;;6298093;22;20006;-79
2022/09/06 05:16:45;;;;;;;0.38;0.38;;;18.90;74.80;;;;;;6265435;22;20011;-78
2022/09/06 05:19:14;;;;;;;0.60;0.60;;;18.90;74.20;;;;;;6290333;22;20015;-77
2022/09/06 05:21:40;;;;;;;0.50;0.50;;;18.90;74.30;;;;;;6269535;22;20033;-77
2022/09/06 05:24:06;;;;;;;0.40;0.40;;;18.90;74.30;;;;;;6241877;22;20004;-77
2022/09/06 05:26:31;;;;;;;0.45;0.45;;;18.90;74.40;;;;;;6295169;22;20340;-77
2022/09/06 05:28:57;;;;;;;0.47;0.47;;;18.90;74.50;;;;;;6269719;22;20014;-78
2022/09/06 05:31:26;;;;;;;0.47;0.45;;;18.90;74.50;;;;;;6262781;22;20016;-76
2022/09/06 05:33:53;;;;;;;0.60;0.60;;;18.90;74.60;;;;;;6290649;22;20004;-77
2022/09/06 05:36:19;;;;;;;0.73;0.60;;;18.80;74.60;;;;;;6270208;22;20133;-77
2022/09/06 05:38:45;;;;;;;0.50;0.45;;;18.90;74.70;;;;;;6267266;22;20011;-76
2022/09/06 05:41:11;;;;;;;0.75;0.55;;;18.90;74.80;;;;;;6289523;22;20411;-76
2022/09/06 05:43:36;;;;;;;0.80;0.70;;;18.80;74.90;;;;;;6291052;22;20053;-77
2022/09/06 05:46:02;;;;;;;0.50;0.50;;;18.80;75.60;;;;;;6291941;22;20010;-77
2022/09/06 05:48:28;;;;;;;0.50;0.50;;;18.80;75.00;;;;;;6290407;22;20007;-77
2022/09/06 05:51:05;;;;;;;0.50;0.50;;;18.90;75.10;;;;;;6264485;22;20014;-77
2022/09/06 05:53:41;;;;;;;0.57;0.57;;;18.70;75.00;;;;;;6262044;22;20034;-76
2022/09/06 05:56:08;;;;;;;0.50;0.50;;;18.90;75.10;;;;;;6288737;22;20012;-77
2022/09/06 05:58:34;;;;;;;0.55;0.55;;;19.00;75.10;;;;;;6234670;22;20027;-78
2022/09/06 06:01:04;;;;;;;0.88;0.70;;;18.90;75.10;;;;;;6288659;22;20316;-80
2022/09/06 06:03:30;;;;;;;0.32;0.32;;;18.90;75.10;;;;;;6251361;22;20388;-80
2022/09/06 06:05:56;;;;;;;0.47;0.47;;;18.80;75.00;;;;;;6249007;22;20007;-80
2022/09/06 06:08:22;;;;;;;0.60;0.60;;;18.90;75.10;;;;;;6248342;22;20008;-80
2022/09/06 06:10:47;;;;;;;0.50;0.50;;;18.90;75.10;;;;;;6248981;22;20482;-80
2022/09/06 06:13:13;;;;;;;1.00;0.63;;;18.80;75.20;;;;;;6275239;22;20011;-80
2022/09/06 06:15:39;;;;;;;0.60;0.60;;;18.80;75.30;;;;;;6275644;22;20515;-79
2022/09/06 06:18:05;;;;;;;0.60;0.60;;;18.80;75.40;;;;;;6276215;22;20008;-80
2022/09/06 06:20:30;;;;;;;0.70;0.70;;;18.70;75.40;;;;;;6222833;22;20012;-82
2022/09/06 06:22:56;;;;;;;0.60;0.60;;;18.90;75.50;;;;;;6223607;22;20014;-78
2022/09/06 06:25:25;;;;;;;0.70;0.60;;;18.80;75.40;;;;;;6274691;22;20019;-78
2022/09/06 06:27:51;;;;;;;0.60;0.60;;;18.80;75.60;;;;;;6275087;22;20010;-74
2022/09/06 06:30:17;;;;;;;0.88;0.73;;;18.70;75.60;;;;;;6274786;22;20016;-74
2022/09/06 06:32:43;;;;;;;0.70;0.70;;;18.80;75.70;;;;;;6222589;22;20016;-75
2022/09/06 06:35:09;;;;;;;0.75;0.75;;;18.80;75.70;;;;;;6244804;22;20439;-74
2022/09/06 06:37:35;;;;;;;2.75;1.50;;;18.80;75.70;;;;;;6274951;22;20138;-75
2022/09/06 06:40:00;;;;;;;0.80;0.80;;;18.80;75.70;;;;;;6275132;22;20035;-74
2022/09/06 06:42:26;;;;;;;0.77;0.77;;;18.80;75.60;;;;;;6275846;22;19999;-74
2022/09/06 06:44:52;;;;;;;0.77;0.77;;;18.90;75.60;;;;;;6248171;22;20018;-74
2022/09/06 06:47:18;;;;;;;1.15;1.00;;;18.90;75.60;;;;;;6248026;22;20026;-75
2022/09/06 06:49:44;;;;;;;0.60;0.60;;;18.90;75.60;;;;;;6275223;22;20078;-75
2022/09/06 06:52:10;;;;;;;0.98;0.82;;;18.90;75.50;;;;;;6246366;22;20377;-75
2022/09/06 06:54:38;;;;;;;1.02;0.80;;;18.90;75.50;;;;;;6274443;22;20313;-76
2022/09/06 06:57:29;;;;;;;0.55;0.55;;;19.00;75.60;;;;;;6247878;22;20023;-76
2022/09/06 07:00:14;;;;;;;0.60;0.60;;;19.00;75.60;;;;;;6158111;23;20084;-74
2022/09/06 07:02:39;;;;;;;1.13;0.80;;;19.00;75.60;;;;;;6072255;23;20475;-74
2022/09/06 07:05:06;;;;;;;0.52;0.52;;;19.00;75.40;;;;;;6121952;23;20100;-74
2022/09/06 07:07:34;;;;;;;0.60;0.60;;;19.00;75.40;;;;;;6077419;23;20014;-77
2022/09/06 07:10:00;;;;;;;0.60;0.60;;;19.00;75.50;;;;;;6073034;23;20014;-75
2022/09/06 07:12:25;;;;;;;0.50;0.50;;;19.00;75.50;;;;;;6094424;23;20021;-76
2022/09/06 07:14:52;;;;;;;1.10;0.82;;;19.00;75.50;;;;;;6093624;23;20439;-74
2022/09/06 07:17:18;;;;;;;0.70;0.70;;;19.10;75.50;;;;;;6093229;23;20034;-73
2022/09/06 07:19:43;;;;;;;0.70;0.70;;;19.10;75.50;;;;;;6093805;23;20015;-76
2022/09/06 07:22:09;;;;;;;0.93;0.80;;;19.20;75.60;;;;;;6068720;23;20347;-76
2022/09/06 07:24:35;;;;;;;0.73;0.73;;;19.20;75.60;;;;;;6131191;23;20005;-75
2022/09/06 07:27:03;;;;;;;0.60;0.60;;;19.10;75.40;;;;;;6151047;23;20009;-75
2022/09/06 07:29:29;;;;;;;0.70;0.70;;;19.20;75.40;;;;;;6213709;23;20024;-75
2022/09/06 07:31:56;;;;;;;0.70;0.70;;;19.30;75.40;;;;;;6137969;23;20012;-75
2022/09/06 07:34:39;;;;;;;0.90;0.70;;;19.30;75.30;;;;;;6213356;23;20009;-77
2022/09/06 07:37:10;;;;;;;0.70;0.70;;;19.30;75.30;;;;;;6125552;23;20017;-76
2022/09/06 07:39:35;;;;;;;0.80;0.80;;;19.40;75.40;;;;;;6174000;23;20024;-74
2022/09/06 07:42:06;;;;;;;0.93;0.73;;;19.40;75.40;;;;;;6220667;23;20012;-75
2022/09/06 07:44:37;;;;;;;0.70;0.70;;;19.40;75.30;;;;;;6214071;23;20432;-77
2022/09/06 07:47:05;;;;;;;1.10;0.85;;;19.50;75.20;;;;;;6191447;23;20039;-76
2022/09/06 07:49:37;;;;;;;0.50;0.50;;;19.50;75.10;;;;;;6191851;23;20011;-75
2022/09/06 07:52:03;;;;;;;0.95;0.60;;;19.50;75.00;;;;;;6156195;23;20017;-75
2022/09/06 07:54:29;;;;;;;0.80;0.80;;;19.60;75.00;;;;;;6131637;23;20024;-77
2022/09/06 07:56:55;;;;;;;0.77;0.70;;;19.70;75.00;;;;;;6184123;23;20124;-77
2022/09/06 07:59:23;;;;;;;0.73;0.73;;;19.70;74.90;;;;;;6158195;23;20493;-77
2022/09/06 08:01:52;;;;;;;0.60;0.60;;;19.80;74.90;;;;;;6174478;23;20036;-77
2022/09/06 08:04:20;;;;;;;1.00;0.90;;;20.00;74.80;;;;;;6164985;23;20111;-76
2022/09/06 08:06:49;;;;;;;1.00;0.85;;;20.10;74.50;;;;;;6127185;23;20076;-75
2022/09/06 08:09:27;;;;;;;0.82;0.82;;;20.10;74.20;;;;;;6109214;23;20017;-78
2022/09/06 08:11:56;;;;;;;0.70;0.70;;;20.30;73.80;;;;;;6076937;23;20022;-77
2022/09/06 08:14:29;;;;;;;0.80;0.80;;;20.40;73.60;;;;;;6065699;23;20038;-77
2022/09/06 08:19:44;;;;;;;0.77;0.77;;;20.70;73.20;;;;;;5997204;23;20074;-77
2022/09/06 08:22:10;;;;;;;0.80;0.80;;;20.80;72.90;;;;;;5988917;23;20059;-78
2022/09/06 08:24:35;;;;;;;0.70;0.70;;;21.00;72.70;;;;;;6013157;23;20093;-76
2022/09/06 08:27:02;;;;;;;0.98;0.70;;;21.10;72.60;;;;;;6040329;23;20102;-77
2022/09/06 08:29:28;;;;;;;0.70;0.70;;;21.20;72.30;;;;;;6036634;23;20069;-76
2022/09/06 08:31:54;;;;;;;1.08;0.95;;;21.40;72.10;;;;;;6012955;23;20019;-76
2022/09/06 08:34:20;;;;;;;0.80;0.80;;;21.60;71.90;;;;;;6012396;23;20432;-76
2022/09/06 08:36:45;;;;;;;0.80;0.80;;;21.60;71.80;;;;;;6116329;23;20017;-76
2022/09/06 08:39:11;;;;;;;0.70;0.70;;;21.70;71.50;;;;;;6187029;23;20212;-76
2022/09/06 08:41:54;;;;;;;0.80;0.80;;;21.80;71.40;;;;;;6212193;23;20005;-77
2022/09/06 08:44:24;;;;;;;1.25;1.05;;;21.90;71.20;;;;;;6256175;22;20019;-76
2022/09/06 08:47:03;;;;;;;0.88;0.75;;;22.10;71.00;;;;;;6249402;22;20008;-77
2022/09/06 08:49:34;;;;;;;1.70;0.88;;;22.10;70.80;;;;;;6252223;22;20038;-77
2022/09/06 08:52:21;;;;;;;0.77;0.68;;;22.30;70.60;;;;;;6226541;22;20004;-77
2022/09/06 08:55:11;;;;;;;0.70;0.70;;;22.40;70.60;;;;;;6253076;22;20058;-76
2022/09/06 08:58:12;;;;;;;1.42;0.73;;;22.50;70.50;;;;;;6248218;22;20480;-76
2022/09/06 09:00:52;;;;;;;0.60;0.60;;;22.50;70.10;;;;;;6278726;22;20004;-76
2022/09/06 09:03:43;;;;;;;0.80;0.60;;;22.70;70.00;;;;;;6245561;22;20367;-77
2022/09/06 09:06:10;;;;;;;0.50;0.50;;;22.90;69.80;;;;;;6248918;22;20003;-79
2022/09/06 09:08:57;;;;;;;0.70;0.70;;;22.90;69.40;;;;;;6248675;22;20012;-77
2022/09/06 09:11:27;;;;;;;0.98;0.73;;;23.20;69.20;;;;;;6275508;22;20019;-78
2022/09/06 09:14:03;;;;;;;0.80;0.70;;;23.30;68.90;;;;;;6248733;22;20011;-75
2022/09/06 09:16:29;;;;;;;0.60;0.60;;;23.50;68.70;;;;;;6220895;22;20016;-75
2022/09/06 09:18:59;;;;;;;0.57;0.57;;;23.50;68.60;;;;;;6248033;22;20562;-77
2022/09/06 09:21:26;;;;;;;0.52;0.52;;;23.50;68.50;;;;;;6275511;22;20004;-75
2022/09/06 09:23:55;;;;;;;0.80;0.80;;;23.50;68.60;;;;;;6275732;22;20083;-75
2022/09/06 09:26:27;;;;;;;0.52;0.52;;;23.60;68.50;;;;;;6248390;22;20004;-77
2022/09/06 09:29:08;;;;;;;1.13;0.90;;;23.70;68.40;;;;;;6248207;22;20094;-76
2022/09/06 09:31:42;;;;;;;1.40;0.85;;;23.70;68.20;;;;;;6223004;22;20082;-75
2022/09/06 09:34:26;;;;;;;1.30;0.85;;;23.70;68.00;;;;;;6249197;22;20003;-75
2022/09/06 09:37:10;;;;;;;0.82;0.60;;;23.90;67.70;;;;;;6248174;22;20094;-75
2022/09/06 09:39:39;;;;;;;0.70;0.70;;;23.90;67.60;;;;;;6247892;22;20095;-76
2022/09/06 09:42:07;;;;;;;0.70;0.70;;;23.90;67.50;;;;;;6276503;22;20113;-76
2022/09/06 09:44:33;;;;;;;0.88;0.68;;;24.00;67.40;;;;;;6248814;22;20027;-77
2022/09/06 09:46:59;;;;;;;1.77;0.82;;;24.10;67.20;;;;;;6249370;22;20016;-78
2022/09/06 09:49:29;;;;;;;1.08;0.98;;;24.10;66.90;;;;;;6275514;22;20016;-75
2022/09/06 09:52:11;;;;;;;1.10;1.00;;;24.10;66.60;;;;;;6276135;22;20066;-77
2022/09/06 09:54:40;;;;;;;1.15;0.80;;;24.20;66.50;;;;;;6275076;22;20015;-76
2022/09/06 09:57:09;;;;;;;0.73;0.73;;;24.10;66.40;;;;;;6248741;22;20010;-79
2022/09/06 09:59:42;;;;;;;0.60;0.60;;;24.10;66.30;;;;;;6275961;22;20007;-76
2022/09/06 10:02:26;;;;;;;0.70;0.70;;;24.10;66.40;;;;;;6275965;22;20000;-76
2022/09/06 10:05:00;;;;;;;0.60;0.60;;;24.10;66.30;;;;;;6274001;22;20004;-76
2022/09/06 10:07:29;;;;;;;0.50;0.50;;;24.30;66.20;;;;;;6276029;22;20015;-76
2022/09/06 10:09:59;;;;;;;0.60;0.60;;;24.20;66.10;;;;;;6276146;22;20428;-77
2022/09/06 10:12:28;;;;;;;;;;;24.30;66.00;;;;;;6275688;22;20019;-75
2022/09/06 10:14:54;;;;;;;0.40;0.40;;;24.30;65.90;;;;;;6248165;22;19900;-78
2022/09/06 10:17:31;;;;;;;0.70;0.70;;;24.40;65.80;;;;;;6248256;22;20022;-78
2022/09/06 10:20:07;;;;;;;1.13;1.00;;;24.20;65.50;;;;;;6275389;22;20860;-77
2022/09/06 10:22:58;;;;;;;0.80;0.80;;;24.40;65.40;;;;;;6248979;22;20023;-76
2022/09/06 10:25:45;;;;;;;0.70;0.70;;;24.40;65.10;;;;;;6276380;22;19996;-78
2022/09/06 10:28:33;;;;;;;0.70;0.60;;;24.40;65.00;;;;;;6247685;22;20007;-78
2022/09/06 10:31:31;;;;;;;0.70;0.70;;;24.40;64.90;;;;;;6247398;22;20019;-76
2022/09/06 10:34:32;;;;;;;1.75;0.70;;;24.40;64.70;;;;;;6274528;22;20016;-76
2022/09/06 10:37:15;;;;;;;1.25;0.60;;;24.40;64.50;;;;;;6247488;22;20022;-74
2022/09/06 10:39:59;;;;;;;0.60;0.60;;;24.50;64.30;;;;;;6275150;22;20011;-76
2022/09/06 10:42:40;;;;;;;0.85;0.50;;;24.60;64.20;;;;;;6274883;22;20340;-76
2022/09/06 10:45:27;;;;;;;0.60;0.60;;;24.60;64.00;;;;;;6275168;22;20059;-76
2022/09/06 10:48:01;;;;;;;0.50;0.50;;;24.50;63.90;;;;;;6248008;22;20011;-76
2022/09/06 10:50:37;;;;;;;0.60;0.60;;;24.60;63.70;;;;;;6274634;22;20007;-76
2022/09/06 10:53:12;;;;;;;0.82;0.82;;;24.70;63.50;;;;;;6274846;22;20410;-76
2022/09/06 10:55:40;;;;;;;0.70;0.57;;;24.70;63.30;;;;;;6247866;22;20019;-76
2022/09/06 10:58:09;;;;;;;0.70;0.70;;;24.80;63.20;;;;;;6274500;22;20015;-76
2022/09/06 11:00:42;;;;;;;1.08;0.77;;;24.80;63.20;;;;;;6248722;22;20538;-76
2022/09/06 11:03:19;;;;;;;0.50;0.50;;;24.80;63.10;;;;;;6274682;22;20491;-76
2022/09/06 11:05:52;;;;;;;0.95;0.75;;;24.90;63.10;;;;;;6274485;22;20000;-76
2022/09/06 11:08:44;;;;;;;1.02;0.70;;;24.90;62.80;;;;;;6246970;22;20008;-76
2022/09/06 11:11:18;;;;;;;0.77;0.70;;;25.00;62.60;;;;;;6247825;22;20379;-75
2022/09/06 11:13:53;;;;;;;0.60;0.60;;;25.10;62.30;;;;;;6275368;22;20042;-76
2022/09/06 11:17:10;;;;;;;0.82;0.77;;;25.10;62.10;;;;;;6249881;22;20015;-77
2022/09/06 11:20:00;;;;;;;0.93;0.73;;;25.30;61.90;;;;;;6096772;23;20065;-78
2022/09/06 11:22:52;;;;;;;1.45;0.90;;;25.40;61.50;;;;;;6120112;23;20045;-76
2022/09/06 11:25:45;;;;;;;1.25;0.95;;;25.60;61.50;;;;;;6096500;23;20331;-76
2022/09/06 11:28:18;;;;;;;0.82;0.75;;;25.70;61.20;;;;;;6122349;23;20021;-76
2022/09/06 11:31:04;;;;;;;0.82;0.80;;;25.70;60.90;;;;;;6122573;23;20010;-77
2022/09/06 11:33:38;;;;;;;0.68;0.60;;;25.80;60.70;;;;;;6126010;23;20006;-77
2022/09/06 11:36:17;;;;;;;0.85;0.70;;;25.90;60.50;;;;;;6122421;23;20010;-76
2022/09/06 11:38:56;;;;;;;0.50;0.50;;;26.00;60.20;;;;;;6121968;23;20045;-76
2022/09/06 11:41:35;;;;;;;0.77;0.60;;;26.10;60.10;;;;;;6122239;23;20029;-77
2022/09/06 11:44:30;;;;;;;0.60;0.60;;;26.30;60.00;;;;;;6134148;23;20014;-77
2022/09/06 11:47:06;;;;;;;0.60;0.60;;;26.30;60.00;;;;;;6104548;23;20113;-77
2022/09/06 11:49:36;;;;;;;0.70;0.70;;;26.40;59.80;;;;;;6097941;23;20363;-75
2022/09/06 11:52:37;;;;;;;1.05;0.77;;;26.40;59.80;;;;;;6097259;23;20006;-77
2022/09/06 11:55:08;;;;;;;1.23;0.70;;;26.40;59.80;;;;;;6136803;23;20446;-78
2022/09/06 11:57:51;;;;;;;1.35;0.80;;;26.50;59.80;;;;;;6134829;23;20013;-79
2022/09/06 12:00:22;;;;;;;0.60;0.60;;;26.50;59.50;;;;;;6161740;23;20029;-77
2022/09/06 12:02:52;;;;;;;2.38;0.65;;;26.70;59.40;;;;;;6183021;23;20013;-76
2022/09/06 12:05:25;;;;;;;0.90;0.90;;;26.80;59.30;;;;;;6183205;23;20013;-76
2022/09/06 12:08:31;;;;;;;0.68;0.63;;;26.90;59.10;;;;;;6159369;23;20244;-77
2022/09/06 12:11:01;;;;;;;1.20;0.60;;;27.00;59.00;;;;;;6155056;23;20370;-75
2022/09/06 12:13:47;;;;;;;0.70;0.70;;;27.00;58.80;;;;;;6208609;22;20023;-79
2022/09/06 12:16:48;;;;;;;0.88;0.80;;;27.10;58.60;;;;;;6278488;22;20014;-80
2022/09/06 12:19:48;;;;;;;0.88;0.88;;;27.10;58.80;;;;;;6274734;22;20027;-77
2022/09/06 12:22:48;;;;;;;0.60;0.60;;;27.10;58.60;;;;;;6277656;22;20008;-76
2022/09/06 12:25:39;;;;;;;0.60;0.60;;;27.10;58.80;;;;;;6267404;22;20007;-75
2022/09/06 12:28:06;;;;;;;;;;;27.10;58.70;;;;;;6291712;22;20004;-76
2022/09/06 12:30:38;;;;;;;0.60;0.60;;;27.30;58.70;;;;;;6283582;22;19899;-76
2022/09/06 12:33:10;;;;;;;0.50;0.50;;;27.40;58.40;;;;;;6281383;22;20003;-76
2022/09/06 12:35:35;;;;;;;1.48;0.60;;;27.40;58.40;;;;;;6290296;22;19996;-76
2022/09/06 12:38:03;;;;;;;0.60;0.60;;;27.30;58.50;;;;;;6290277;22;20035;-75
2022/09/06 12:40:35;;;;;;;0.73;0.73;;;27.30;58.60;;;;;;6285114;22;20042;-75
2022/09/06 12:43:03;;;;;;;0.70;0.70;;;27.40;58.60;;;;;;6279149;22;20000;-75
2022/09/06 12:45:29;;;;;;;2.10;0.85;;;27.40;58.40;;;;;;6249393;22;20004;-75
2022/09/06 12:48:29;;;;;;;0.80;0.80;;;27.40;58.40;;;;;;6280050;22;20011;-79
2022/09/06 12:51:22;;;;;;;1.08;0.82;;;27.40;58.40;;;;;;6137932;23;20288;-76
2022/09/06 12:54:34;;;;;;;1.60;0.80;;;27.30;58.30;;;;;;6092388;23;20052;-78
2022/09/06 12:57:18;;;;;;;1.88;1.00;;;27.20;58.60;;;;;;6008640;23;20054;-77
2022/09/06 13:00:04;;;;;;;1.00;0.80;;;27.30;58.60;;;;;;6007914;23;20028;-77
2022/09/06 13:05:46;;;;;;;0.80;0.70;;;27.40;58.40;;;;;;6007179;23;20023;-78
2022/09/06 13:08:27;;;;;;;0.88;0.80;;;27.40;58.30;;;;;;6007531;23;20047;-77
2022/09/06 13:10:56;;;;;;;;;;;27.50;58.30;;;;;;5962438;23;20039;-77
2022/09/06 13:13:28;;;;;;;0.82;0.82;;;27.40;58.30;;;;;;6008368;23;19903;-77
2022/09/06 13:16:24;;;;;;;0.70;0.70;;;27.40;58.30;;;;;;5986106;23;20015;-78
2022/09/06 13:18:53;;;;;;;0.60;0.60;;;27.30;58.50;;;;;;6020284;23;20027;-77
2022/09/06 13:21:44;;;;;;;0.50;0.50;;;27.30;58.50;;;;;;6036721;23;20008;-76